createdAt,value
2019-02-27T00:00:11.441Z,99187.09
2019-02-27T00:02:40.365Z,99195.46
2019-02-27T00:05:09.045Z,99192.08
2019-02-27T00:07:37.493Z,99182.09
2019-02-27T00:10:07.251Z,99186.60
2019-02-27T00:12:35.708Z,99189.19
2019-02-27T00:15:04.936Z,99181.17
2019-02-27T00:17:34.499Z,99181.64
2019-02-27T00:20:05.011Z,99030.44
2019-02-27T00:22:33.816Z,99179.37
2019-02-27T00:25:03.431Z,99176.65
2019-02-27T00:27:32.365Z,99176.67
2019-02-27T00:30:04.627Z,99168.71
2019-02-27T00:32:31.018Z,99171.84
2019-02-27T00:34:59.321Z,99165.09
2019-02-27T00:37:27.727Z,99162.27
2019-02-27T00:39:56.170Z,99170.79
2019-02-27T00:42:33.267Z,99172.48
2019-02-27T00:44:54.871Z,99163.72
2019-02-27T00:47:23.270Z,99156.61
2019-02-27T00:49:51.626Z,99154.41
2019-02-27T00:52:20.111Z,99156.94
2019-02-27T00:54:50.360Z,99163.84
2019-02-27T00:57:20.889Z,99161.44
2019-02-27T00:59:48.886Z,99157.39
2019-02-27T01:02:19.911Z,99149.05
2019-02-27T01:04:47.347Z,99150.98
2019-02-27T01:07:20.240Z,99148.64
2019-02-27T01:09:47.142Z,99145.67
2019-02-27T01:12:15.448Z,99139.44
2019-02-27T01:14:43.752Z,99142.47
2019-02-27T01:17:12.109Z,99136.44
2019-02-27T01:19:42.697Z,99143.88
2019-02-27T01:22:10.721Z,99141.51
2019-02-27T01:24:39.063Z,99133.77
2019-02-27T01:27:07.352Z,99132.09
2019-02-27T01:29:36.019Z,99120.59
2019-02-27T01:32:04.385Z,99119.54
2019-02-27T01:34:32.831Z,99112.23
2019-02-27T01:37:01.181Z,99106.43
2019-02-27T01:39:29.579Z,99112.34
2019-02-27T01:41:58.535Z,99116.53
2019-02-27T01:44:27.124Z,99111.69
2019-02-27T01:46:55.483Z,99105.66
2019-02-27T01:49:24.959Z,99098.96
2019-02-27T01:51:53.579Z,99107.60
2019-02-27T01:54:21.911Z,99099.45
2019-02-27T01:56:50.189Z,99096.58
2019-02-27T01:59:18.777Z,99099.11
2019-02-27T02:01:47.151Z,99098.80
2019-02-27T02:04:20.001Z,99094.39
2019-02-27T02:06:45.559Z,99087.65
2019-02-27T02:09:30.804Z,99082.97
2019-02-27T02:12:01.112Z,99086.06
2019-02-27T02:14:38.351Z,99080.27
2019-02-27T02:17:09.956Z,99078.49
2019-02-27T02:19:56.741Z,99073.86
2019-02-27T02:22:41.305Z,99070.27
2019-02-27T02:25:21.729Z,99068.30
2019-02-27T02:28:19.160Z,99073.34
2019-02-27T02:31:04.942Z,99071.00
2019-02-27T02:33:36.362Z,99075.56
2019-02-27T02:36:32.948Z,99071.81
2019-02-27T02:39:24.214Z,99064.34
2019-02-27T02:42:13.770Z,99064.55
2019-02-27T02:45:04.601Z,99054.80
2019-02-27T02:48:04.740Z,99061.91
2019-02-27T02:50:54.270Z,99052.04
2019-02-27T02:54:02.060Z,99050.46
2019-02-27T02:56:36.205Z,99050.92
2019-02-27T02:59:36.744Z,99044.41
2019-02-27T03:02:08.284Z,99047.55
2019-02-27T03:04:48.243Z,99056.14
2019-02-27T03:07:22.436Z,99051.39
2019-02-27T03:10:10.795Z,99050.34
2019-02-27T03:13:07.120Z,99047.58
2019-02-27T03:15:52.625Z,99041.74
2019-02-27T03:18:45.537Z,99042.64
2019-02-27T03:21:35.206Z,99043.17
2019-02-27T03:24:27.943Z,99036.45
2019-02-27T03:27:02.600Z,99030.01
2019-02-27T03:30:05.911Z,99025.80
2019-02-27T03:32:49.198Z,99029.07
2019-02-27T03:35:42.145Z,99040.13
2019-02-27T03:38:36.360Z,99040.28
2019-02-27T03:41:23.640Z,99041.73
2019-02-27T03:44:10.397Z,99043.14
2019-02-27T03:46:51.040Z,99044.16
2019-02-27T03:49:55.922Z,99051.47
2019-02-27T03:52:37.347Z,99050.30
2019-02-27T03:55:20.795Z,99044.38
2019-02-27T03:58:04.705Z,99043.44
2019-02-27T04:00:44.199Z,99037.44
2019-02-27T04:03:44.995Z,99039.09
2019-02-27T04:06:25.633Z,99034.55
2019-02-27T04:08:57.773Z,99033.81
2019-02-27T04:11:26.326Z,99031.63
2019-02-27T04:13:54.799Z,99028.77
2019-02-27T04:16:28.866Z,99028.72
2019-02-27T04:18:53.150Z,99029.73
2019-02-27T04:21:25.027Z,99031.84
2019-02-27T04:23:51.842Z,99020.73
2019-02-27T04:26:20.343Z,99024.78
2019-02-27T04:28:48.645Z,99017.25
2019-02-27T04:31:16.971Z,99016.39
2019-02-27T04:33:45.503Z,99019.87
2019-02-27T04:36:14.068Z,99010.87
2019-02-27T04:38:42.796Z,99013.72
2019-02-27T04:41:11.239Z,99012.41
2019-02-27T04:43:39.607Z,99005.15
2019-02-27T04:46:07.900Z,99010.67
2019-02-27T04:48:36.227Z,99019.06
2019-02-27T04:51:04.616Z,99016.09
2019-02-27T04:53:32.985Z,99013.06
2019-02-27T04:56:01.367Z,99015.52
2019-02-27T04:58:31.299Z,99011.83
2019-02-27T05:01:01.059Z,99017.91
2019-02-27T05:03:29.396Z,99016.17
2019-02-27T05:05:59.464Z,99012.91
2019-02-27T05:08:27.835Z,99009.13
2019-02-27T05:10:56.136Z,99013.52
2019-02-27T05:13:24.457Z,99015.26
2019-02-27T05:15:52.832Z,99013.32
2019-02-27T05:18:21.189Z,99011.73
2019-02-27T05:20:49.462Z,99013.84
2019-02-27T05:23:19.539Z,99018.02
2019-02-27T05:25:47.923Z,99022.02
2019-02-27T05:28:16.259Z,99020.12
2019-02-27T05:30:45.233Z,99015.63
2019-02-27T05:33:14.263Z,99017.22
2019-02-27T05:35:42.646Z,99019.30
2019-02-27T05:38:11.114Z,99020.32
2019-02-27T05:40:39.479Z,99023.14
2019-02-27T05:43:07.810Z,99023.23
2019-02-27T05:45:36.134Z,99024.98
2019-02-27T05:48:04.478Z,99019.45
2019-02-27T05:50:34.340Z,99024.49
2019-02-27T05:53:02.917Z,99024.52
2019-02-27T05:55:31.406Z,99029.11
2019-02-27T05:57:59.767Z,99028.58
2019-02-27T06:00:28.169Z,99024.82
2019-02-27T06:02:56.940Z,99023.88
2019-02-27T06:05:25.479Z,99027.96
2019-02-27T06:07:53.844Z,99025.58
2019-02-27T06:10:23.614Z,99029.21
2019-02-27T06:12:52.028Z,99025.23
2019-02-27T06:15:20.468Z,99028.09
2019-02-27T06:17:49.730Z,99030.95
2019-02-27T06:20:18.171Z,99034.02
2019-02-27T06:22:46.546Z,99027.89
2019-02-27T06:25:21.912Z,99027.97
2019-02-27T06:27:47.597Z,99023.09
2019-02-27T06:30:18.641Z,99025.73
2019-02-27T06:32:47.360Z,99029.29
2019-02-27T06:35:16.121Z,99024.69
2019-02-27T06:37:44.666Z,99024.00
2019-02-27T06:40:18.385Z,99026.56
2019-02-27T06:42:47.124Z,99019.53
2019-02-27T06:45:18.500Z,99022.98
2019-02-27T06:47:46.798Z,99018.39
2019-02-27T06:50:16.273Z,99019.41
2019-02-27T06:52:44.755Z,99023.98
2019-02-27T06:55:14.583Z,99025.23
2019-02-27T06:57:42.973Z,99019.30
2019-02-27T07:00:16.569Z,99018.38
2019-02-27T07:02:44.975Z,99011.44
2019-02-27T07:05:14.099Z,99008.42
2019-02-27T07:07:42.623Z,99010.97
2019-02-27T07:10:19.409Z,99030.59
2019-02-27T07:12:45.909Z,99024.48
2019-02-27T07:15:21.602Z,99018.60
2019-02-27T07:17:50.012Z,99022.96
2019-02-27T07:20:18.455Z,99010.32
2019-02-27T07:22:47.087Z,99017.33
2019-02-27T07:25:17.666Z,99018.54
2019-02-27T07:27:46.094Z,99016.14
2019-02-27T07:30:18.511Z,99006.22
2019-02-27T07:32:46.946Z,99003.37
2019-02-27T07:35:16.479Z,99003.37
2019-02-27T07:37:48.006Z,99001.41
2019-02-27T07:40:16.990Z,98999.36
2019-02-27T07:42:45.902Z,98998.58
2019-02-27T07:45:22.823Z,98998.75
2019-02-27T07:47:51.368Z,98996.30
2019-02-27T07:50:20.734Z,98998.54
2019-02-27T07:52:49.130Z,98996.19
2019-02-27T07:55:21.797Z,98990.69
2019-02-27T07:57:48.326Z,98989.51
2019-02-27T08:00:19.776Z,98987.31
2019-02-27T08:02:48.085Z,98977.16
2019-02-27T08:05:16.505Z,98983.74
2019-02-27T08:07:48.811Z,98977.75
2019-02-27T08:10:22.327Z,98968.97
2019-02-27T08:12:55.598Z,98967.19
2019-02-27T08:15:20.986Z,98961.88
2019-02-27T08:17:49.415Z,98962.85
2019-02-27T08:20:21.080Z,98957.37
2019-02-27T08:22:49.717Z,98961.55
2019-02-27T08:25:19.748Z,98960.06
2019-02-27T08:27:48.140Z,98960.07
2019-02-27T08:30:22.548Z,98950.03
2019-02-27T08:32:50.930Z,98941.45
2019-02-27T08:35:19.615Z,98944.32
2019-02-27T08:37:47.918Z,98939.94
2019-02-27T08:40:16.281Z,98932.60
2019-02-27T08:42:44.665Z,98936.19
2019-02-27T08:45:20.010Z,98933.59
2019-02-27T08:47:47.986Z,98930.23
2019-02-27T08:50:21.462Z,98919.53
2019-02-27T08:52:51.540Z,98915.69
2019-02-27T08:55:22.548Z,98914.89
2019-02-27T08:57:55.796Z,98909.33
2019-02-27T09:00:26.109Z,98907.37
2019-02-27T09:02:55.727Z,98904.70
2019-02-27T09:05:24.251Z,98896.20
2019-02-27T09:07:52.664Z,98891.00
2019-02-27T09:10:23.177Z,98892.89
2019-02-27T09:12:52.656Z,98883.88
2019-02-27T09:15:21.186Z,98892.01
2019-02-27T09:17:49.867Z,98883.30
2019-02-27T09:20:22.749Z,98880.06
2019-02-27T09:22:51.172Z,98880.58
2019-02-27T09:25:23.626Z,98883.90
2019-02-27T09:27:49.633Z,98875.31
2019-02-27T09:30:20.672Z,98878.92
2019-02-27T09:32:49.003Z,98870.69
2019-02-27T09:35:17.524Z,98871.03
2019-02-27T09:37:48.366Z,98865.05
2019-02-27T09:40:23.902Z,98868.87
2019-02-27T09:42:53.047Z,98864.17
2019-02-27T09:45:27.336Z,98860.68
2019-02-27T09:47:59.277Z,98858.34
2019-02-27T09:50:40.282Z,98861.83
2019-02-27T09:53:08.794Z,98852.33
2019-02-27T09:55:37.177Z,98852.64
2019-02-27T09:58:10.379Z,98847.12
2019-02-27T10:00:41.679Z,98846.54
2019-02-27T10:03:10.271Z,98846.94
2019-02-27T10:05:40.727Z,98843.84
2019-02-27T10:08:09.455Z,98845.30
2019-02-27T10:10:37.770Z,98846.94
2019-02-27T10:13:06.243Z,98839.69
2019-02-27T10:15:34.756Z,98839.97
2019-02-27T10:18:03.262Z,98834.22
2019-02-27T10:20:31.627Z,98838.03
2019-02-27T10:22:59.962Z,98834.45
2019-02-27T10:25:28.699Z,98825.79
2019-02-27T10:27:57.106Z,98830.31
2019-02-27T10:30:25.669Z,98827.95
2019-02-27T10:32:54.104Z,98821.57
2019-02-27T10:35:23.052Z,98816.38
2019-02-27T10:37:54.371Z,98810.14
2019-02-27T10:40:26.188Z,98803.20
2019-02-27T10:42:54.810Z,98801.55
2019-02-27T10:45:23.196Z,98806.56
2019-02-27T10:47:51.523Z,98805.45
2019-02-27T10:50:19.888Z,98799.66
2019-02-27T10:52:50.008Z,98796.97
2019-02-27T10:55:27.085Z,98793.40
2019-02-27T10:57:55.702Z,98784.45
2019-02-27T11:00:35.181Z,98785.06
2019-02-27T11:03:03.808Z,98781.20
2019-02-27T11:05:39.670Z,98775.73
2019-02-27T11:08:08.048Z,98777.14
2019-02-27T11:10:36.564Z,98767.69
2019-02-27T11:13:06.734Z,98762.86
2019-02-27T11:15:35.168Z,98766.60
2019-02-27T11:18:05.503Z,98750.45
2019-02-27T11:20:33.981Z,98746.45
2019-02-27T11:23:06.417Z,98738.88
2019-02-27T11:25:32.726Z,98740.81
2019-02-27T11:28:01.167Z,98732.87
2019-02-27T11:30:40.682Z,98728.52
2019-02-27T11:33:09.406Z,98717.16
2019-02-27T11:35:37.743Z,98713.18
2019-02-27T11:38:06.220Z,98706.80
2019-02-27T11:40:34.840Z,98705.77
2019-02-27T11:43:06.710Z,98705.55
2019-02-27T11:45:33.318Z,98698.63
2019-02-27T11:48:01.654Z,98688.77
2019-02-27T11:50:30.020Z,98687.12
2019-02-27T11:53:01.764Z,98677.47
2019-02-27T11:55:28.484Z,98673.89
2019-02-27T11:57:56.813Z,98675.97
2019-02-27T12:00:31.284Z,98669.35
2019-02-27T12:02:59.812Z,98665.44
2019-02-27T12:05:33.718Z,98657.05
2019-02-27T12:07:58.958Z,98656.27
2019-02-27T12:10:29.738Z,98651.59
2019-02-27T12:13:00.807Z,98655.89
2019-02-27T12:15:28.200Z,98650.66
2019-02-27T12:17:59.696Z,98649.17
2019-02-27T12:20:26.749Z,98651.06
2019-02-27T12:22:55.219Z,98647.73
2019-02-27T12:25:26.912Z,98638.67
2019-02-27T12:27:56.897Z,98635.38
2019-02-27T12:30:27.030Z,98633.80
2019-02-27T12:32:56.608Z,98632.25
2019-02-27T12:35:27.579Z,98619.48
2019-02-27T12:37:56.036Z,98622.06
2019-02-27T12:40:25.235Z,98620.39
2019-02-27T12:42:53.833Z,98621.64
2019-02-27T12:45:29.853Z,98611.58
2019-02-27T12:47:58.645Z,98608.35
2019-02-27T12:50:31.037Z,98608.10
2019-02-27T12:52:58.524Z,98599.17
2019-02-27T12:55:28.339Z,98598.44
2019-02-27T12:57:56.635Z,98592.68
2019-02-27T13:00:29.718Z,98593.41
2019-02-27T13:02:59.175Z,98592.78
2019-02-27T13:05:27.946Z,98591.30
2019-02-27T13:07:56.384Z,98576.91
2019-02-27T13:10:26.157Z,98581.97
2019-02-27T13:12:54.516Z,98572.02
2019-02-27T13:15:25.052Z,98572.50
2019-02-27T13:17:57.587Z,98560.95
2019-02-27T13:20:34.299Z,98553.85
2019-02-27T13:23:05.048Z,98554.36
2019-02-27T13:25:32.765Z,98544.84
2019-02-27T13:28:01.067Z,98544.84
2019-02-27T13:30:29.647Z,98535.16
2019-02-27T13:33:00.606Z,98533.31
2019-02-27T13:35:29.077Z,98529.09
2019-02-27T13:37:57.645Z,98517.02
2019-02-27T13:40:28.444Z,98516.44
2019-02-27T13:42:56.949Z,98518.73
2019-02-27T13:45:27.762Z,98512.78
2019-02-27T13:47:56.117Z,98505.67
2019-02-27T13:50:26.780Z,98502.88
2019-02-27T13:52:58.578Z,98497.82
2019-02-27T13:55:26.951Z,98502.22
2019-02-27T13:57:58.798Z,98500.19
2019-02-27T14:00:36.722Z,98487.88
2019-02-27T14:03:05.193Z,98485.67
2019-02-27T14:05:40.715Z,98485.67
2019-02-27T14:08:09.031Z,98489.41
2019-02-27T14:10:37.491Z,98489.54
2019-02-27T14:13:08.609Z,98490.20
2019-02-27T14:15:36.245Z,98485.84
2019-02-27T14:18:04.621Z,98482.24
2019-02-27T14:20:36.485Z,98486.44
2019-02-27T14:23:04.965Z,98482.69
2019-02-27T14:25:33.980Z,98489.38
2019-02-27T14:28:02.464Z,98477.29
2019-02-27T14:30:39.490Z,98471.95
2019-02-27T14:33:07.939Z,98473.66
2019-02-27T14:35:36.693Z,98475.84
2019-02-27T14:38:05.351Z,98466.17
2019-02-27T14:40:37.687Z,98469.64
2019-02-27T14:43:04.015Z,98456.85
2019-02-27T14:45:32.380Z,98458.61
2019-02-27T14:48:00.708Z,98466.08
2019-02-27T14:50:33.498Z,98466.45
2019-02-27T14:52:59.951Z,98468.30
2019-02-27T14:55:28.385Z,98467.64
2019-02-27T14:57:56.879Z,98462.50
2019-02-27T15:00:27.304Z,98465.97
2019-02-27T15:02:56.520Z,98458.34
2019-02-27T15:05:24.870Z,98461.58
2019-02-27T15:07:54.653Z,98459.84
2019-02-27T15:10:23.850Z,98454.54
2019-02-27T15:12:55.179Z,98448.94
2019-02-27T15:15:32.567Z,98448.31
2019-02-27T15:18:00.976Z,98445.22
2019-02-27T15:20:31.442Z,98446.25
2019-02-27T15:22:59.911Z,98445.31
2019-02-27T15:25:28.255Z,98430.91
2019-02-27T15:27:58.670Z,98438.80
2019-02-27T15:30:31.948Z,98431.34
2019-02-27T15:33:03.704Z,98430.05
2019-02-27T15:35:30.479Z,98431.19
2019-02-27T15:37:58.939Z,98424.02
2019-02-27T15:40:30.057Z,98419.58
2019-02-27T15:42:59.037Z,98414.61
2019-02-27T15:45:28.504Z,98417.72
2019-02-27T15:47:56.943Z,98416.27
2019-02-27T15:50:27.812Z,98416.84
2019-02-27T15:52:56.112Z,98415.28
2019-02-27T15:55:24.519Z,98412.50
2019-02-27T15:57:54.152Z,98415.47
2019-02-27T16:00:27.958Z,98407.82
2019-02-27T16:02:56.422Z,98404.62
2019-02-27T16:05:29.869Z,98406.22
2019-02-27T16:07:55.071Z,98399.17
2019-02-27T16:10:27.767Z,98394.34
2019-02-27T16:12:59.699Z,98390.91
2019-02-27T16:15:26.453Z,98393.11
2019-02-27T16:17:54.792Z,98392.74
2019-02-27T16:20:27.218Z,98392.37
2019-02-27T16:22:55.545Z,98384.63
2019-02-27T16:25:27.908Z,98383.39
2019-02-27T16:27:56.316Z,98378.03
2019-02-27T16:30:32.983Z,98381.01
2019-02-27T16:33:01.482Z,98376.89
2019-02-27T16:35:29.929Z,98381.22
2019-02-27T16:37:58.492Z,98380.77
2019-02-27T16:40:27.930Z,98386.80
2019-02-27T16:42:56.654Z,98378.34
2019-02-27T16:45:31.915Z,98375.82
2019-02-27T16:47:58.416Z,98383.53
2019-02-27T16:50:28.236Z,98380.71
2019-02-27T16:52:56.800Z,98379.91
2019-02-27T16:55:26.807Z,98378.76
2019-02-27T16:57:57.649Z,98380.83
2019-02-27T17:00:31.369Z,98340.12
2019-02-27T17:03:00.104Z,98379.82
2019-02-27T17:05:28.502Z,98374.70
2019-02-27T17:08:00.410Z,98369.91
2019-02-27T17:10:35.663Z,98368.77
2019-02-27T17:13:04.149Z,98363.80
2019-02-27T17:15:35.762Z,98363.69
2019-02-27T17:18:02.521Z,98365.60
2019-02-27T17:20:31.154Z,98363.93
2019-02-27T17:22:59.585Z,98358.08
2019-02-27T17:25:30.069Z,98358.89
2019-02-27T17:27:58.162Z,98360.15
2019-02-27T17:30:37.685Z,98357.06
2019-02-27T17:33:05.411Z,98353.64
2019-02-27T17:35:33.859Z,98355.69
2019-02-27T17:38:03.173Z,98358.27
2019-02-27T17:40:36.224Z,98353.38
2019-02-27T17:43:01.892Z,98350.13
2019-02-27T17:45:30.960Z,98349.73
2019-02-27T17:47:59.503Z,98349.88
2019-02-27T17:50:31.268Z,98351.09
2019-02-27T17:52:58.070Z,98347.66
2019-02-27T17:55:26.481Z,98352.59
2019-02-27T17:57:57.867Z,98348.86
2019-02-27T18:00:28.585Z,98359.21
2019-02-27T18:02:56.963Z,98361.48
2019-02-27T18:05:26.197Z,98356.14
2019-02-27T18:07:56.414Z,98358.46
2019-02-27T18:10:24.950Z,98362.24
2019-02-27T18:12:53.368Z,98364.45
2019-02-27T18:15:22.883Z,98358.20
2019-02-27T18:17:51.699Z,98359.92
2019-02-27T18:20:24.289Z,98356.73
2019-02-27T18:22:50.567Z,98358.02
2019-02-27T18:25:19.070Z,98351.58
2019-02-27T18:27:48.000Z,98351.00
2019-02-27T18:30:21.105Z,98350.59
2019-02-27T18:32:49.858Z,98347.75
2019-02-27T18:35:19.446Z,98355.69
2019-02-27T18:37:53.101Z,98349.49
2019-02-27T18:40:20.086Z,98349.41
2019-02-27T18:42:48.589Z,98345.93
2019-02-27T18:45:22.394Z,98346.17
2019-02-27T18:47:50.797Z,98350.01
2019-02-27T18:50:19.278Z,98347.02
2019-02-27T18:52:47.708Z,98343.05
2019-02-27T18:55:16.366Z,98343.37
2019-02-27T18:57:47.167Z,98349.92
2019-02-27T19:00:23.842Z,98348.19
2019-02-27T19:02:54.582Z,98345.35
2019-02-27T19:05:23.039Z,98343.20
2019-02-27T19:07:54.841Z,98347.42
2019-02-27T19:10:21.940Z,98347.22
2019-02-27T19:12:50.418Z,98347.89
2019-02-27T19:15:22.070Z,98351.64
2019-02-27T19:17:50.488Z,98347.73
2019-02-27T19:20:25.147Z,98338.31
2019-02-27T19:22:53.910Z,98341.08
2019-02-27T19:25:22.354Z,98337.34
2019-02-27T19:27:50.982Z,98338.66
2019-02-27T19:30:20.186Z,98327.30
2019-02-27T19:32:49.156Z,98326.98
2019-02-27T19:35:21.284Z,98328.45
2019-02-27T19:37:49.501Z,98323.25
2019-02-27T19:40:20.713Z,98320.80
2019-02-27T19:43:03.153Z,98323.52
2019-02-27T19:45:31.614Z,98322.48
2019-02-27T19:48:01.011Z,98317.58
2019-02-27T19:50:29.513Z,98313.91
2019-02-27T19:53:03.271Z,98319.59
2019-02-27T19:55:28.175Z,98306.18
2019-02-27T19:57:56.569Z,98306.05
2019-02-27T20:00:33.722Z,98306.39
2019-02-27T20:03:01.085Z,98304.06
2019-02-27T20:05:30.213Z,98297.94
2019-02-27T20:07:58.598Z,98295.98
2019-02-27T20:10:30.958Z,98286.91
2019-02-27T20:12:57.984Z,98289.19
2019-02-27T20:15:27.109Z,98287.80
2019-02-27T20:17:55.417Z,98280.89
2019-02-27T20:20:24.114Z,98281.62
2019-02-27T20:22:53.487Z,98280.27
2019-02-27T20:25:26.278Z,98279.46
2019-02-27T20:27:57.976Z,98265.97
2019-02-27T20:30:25.355Z,98273.02
2019-02-27T20:32:54.120Z,98270.64
2019-02-27T20:35:22.447Z,98273.63
2019-02-27T20:37:50.980Z,98267.69
2019-02-27T20:40:20.587Z,98271.90
2019-02-27T20:42:50.741Z,98266.23
2019-02-27T20:45:23.070Z,98263.56
2019-02-27T20:47:57.701Z,98264.50
2019-02-27T20:50:44.650Z,98259.12
2019-02-27T20:53:14.723Z,98260.12
2019-02-27T20:55:43.226Z,98259.66
2019-02-27T20:58:16.161Z,98260.73
2019-02-27T21:00:42.278Z,98254.31
2019-02-27T21:03:10.744Z,98252.18
2019-02-27T21:05:41.091Z,98254.06
